Time;durP1;ratioP1;P1;durP2;ratioP2;P2;SDS_P1;SDS_P2;PMS_P1;PMS_P2;Temp;Humidity;BMP_temperature;BMP_pressure;BME280_temperature;BME280_humidity;BME280_pressure;Samples;Min_cycle;Max_cycle;Signal;HPM_P1;HPM_P2
2022/03/27 00:01:25;;;;;;;18.80;13.30;;;10.30;86.70;;;;;;5032291;28;20410;-72
2022/03/27 00:03:50;;;;;;;21.13;12.70;;;10.20;87.30;;;;;;5033307;28;20398;-72
2022/03/27 00:06:16;;;;;;;18.17;12.80;;;10.10;88.10;;;;;;5032904;28;20282;-72
2022/03/27 00:08:42;;;;;;;17.50;11.87;;;10.00;89.20;;;;;;5032752;28;20199;-72
2022/03/27 00:11:27;;;;;;;17.97;12.73;;;9.90;90.40;;;;;;5032697;28;20184;-72
2022/03/27 00:14:05;;;;;;;22.40;13.80;;;9.80;90.70;;;;;;5031573;28;20199;-72
2022/03/27 00:16:32;;;;;;;20.00;13.40;;;9.80;90.80;;;;;;5031357;28;20485;-72
2022/03/27 00:18:58;;;;;;;20.00;13.07;;;9.90;91.00;;;;;;5032622;28;20406;-72
2022/03/27 00:21:24;;;;;;;18.33;12.10;;;9.90;91.10;;;;;;5032876;28;20410;-72
2022/03/27 00:23:51;;;;;;;19.33;12.63;;;9.90;91.30;;;;;;5031345;28;20495;-72
2022/03/27 00:26:17;;;;;;;24.37;14.73;;;9.80;91.60;;;;;;5032519;28;20287;-72
2022/03/27 00:28:43;;;;;;;23.97;14.20;;;9.70;91.90;;;;;;5032542;28;20494;-72
2022/03/27 00:31:10;;;;;;;22.77;14.00;;;9.70;92.30;;;;;;5030717;28;20210;-72
2022/03/27 00:33:37;;;;;;;18.03;14.10;;;9.60;92.30;;;;;;5032763;28;20891;-72
2022/03/27 00:36:05;;;;;;;20.63;13.60;;;9.60;92.70;;;;;;5032286;28;20460;-72
2022/03/27 00:38:32;;;;;;;22.57;13.00;;;9.50;93.00;;;;;;5034856;28;20738;-72
2022/03/27 00:40:59;;;;;;;20.97;13.87;;;9.50;93.40;;;;;;5036035;28;20422;-72
2022/03/27 00:43:27;;;;;;;19.40;13.47;;;9.50;93.40;;;;;;5035925;28;20402;-72
2022/03/27 00:45:53;;;;;;;19.83;14.37;;;9.50;93.50;;;;;;5035308;28;20444;-72
2022/03/27 00:48:20;;;;;;;22.00;14.00;;;9.40;93.60;;;;;;5034727;28;20417;-72
2022/03/27 00:50:47;;;;;;;21.23;14.60;;;9.50;93.70;;;;;;5036163;28;20414;-72
2022/03/27 00:53:13;;;;;;;22.73;14.00;;;9.40;93.90;;;;;;5036040;28;20458;-72
2022/03/27 00:55:39;;;;;;;24.37;13.77;;;9.40;94.10;;;;;;5035629;28;20977;-72
2022/03/27 00:58:06;;;;;;;19.03;12.43;;;9.40;94.20;;;;;;5036231;28;20221;-72
2022/03/27 01:00:43;;;;;;;23.73;13.03;;;9.40;94.50;;;;;;5035262;28;20874;-72
2022/03/27 01:03:14;;;;;;;20.30;14.47;;;9.40;94.60;;;;;;5035645;28;20910;-71
2022/03/27 01:05:44;;;;;;;21.20;15.00;;;9.40;94.90;;;;;;5035911;28;20801;-72
2022/03/27 01:08:11;;;;;;;20.47;13.80;;;9.40;95.10;;;;;;5034176;28;20422;-72
2022/03/27 01:10:39;;;;;;;16.83;12.80;;;9.30;95.20;;;;;;5035634;28;20419;-72
2022/03/27 01:13:08;;;;;;;20.43;13.70;;;9.20;95.40;;;;;;5036205;28;20520;-71
2022/03/27 01:15:45;;;;;;;19.77;14.80;;;9.20;95.40;;;;;;5034345;28;20481;-72
2022/03/27 01:18:12;;;;;;;20.77;14.27;;;9.10;95.60;;;;;;5035814;28;20427;-69
2022/03/27 01:20:40;;;;;;;22.50;15.00;;;9.20;95.90;;;;;;5035542;28;20957;-72
2022/03/27 01:23:11;;;;;;;20.17;13.93;;;9.10;96.00;;;;;;5034385;28;20404;-70
2022/03/27 01:25:38;;;;;;;17.93;13.50;;;8.90;96.50;;;;;;5035676;28;20500;-70
2022/03/27 01:28:04;;;;;;;23.77;14.87;;;8.90;97.00;;;;;;5035728;28;20462;-72
2022/03/27 01:30:30;;;;;;;18.40;13.50;;;8.80;97.00;;;;;;5034047;28;20442;-71
2022/03/27 01:32:56;;;;;;;21.40;14.33;;;8.90;97.30;;;;;;5036053;28;20413;-71
2022/03/27 01:35:22;;;;;;;20.77;14.27;;;8.90;97.10;;;;;;5034681;28;20565;-71
2022/03/27 01:37:48;;;;;;;17.03;13.40;;;8.80;97.20;;;;;;5035139;28;20285;-71
2022/03/27 01:40:15;;;;;;;23.93;13.63;;;8.80;97.30;;;;;;5035373;28;20407;-71
2022/03/27 01:42:40;;;;;;;17.40;12.93;;;8.80;97.60;;;;;;5037287;28;20409;-71
2022/03/27 01:45:07;;;;;;;23.90;15.07;;;8.90;97.60;;;;;;5034709;28;20888;-72
2022/03/27 01:47:33;;;;;;;20.70;13.90;;;8.90;97.60;;;;;;5034803;28;20261;-71
2022/03/27 01:50:01;;;;;;;19.40;13.60;;;8.90;97.70;;;;;;5034039;28;20503;-71
2022/03/27 01:52:27;;;;;;;18.00;13.40;;;8.80;97.70;;;;;;5035083;28;20174;-72
2022/03/27 01:54:52;;;;;;;22.60;14.97;;;8.80;98.00;;;;;;5035043;28;20407;-70
2022/03/27 01:57:18;;;;;;;21.97;13.50;;;8.70;98.20;;;;;;5034448;28;20233;-71
2022/03/27 01:59:44;;;;;;;24.13;14.70;;;8.70;98.30;;;;;;5034620;28;20176;-71
2022/03/27 02:02:09;;;;;;;24.30;15.20;;;8.60;98.50;;;;;;5034454;28;20252;-70
2022/03/27 02:04:36;;;;;;;21.97;13.50;;;8.60;98.90;;;;;;5034802;28;20989;-70
2022/03/27 02:07:01;;;;;;;27.90;14.67;;;8.60;98.90;;;;;;5034264;28;20190;-70
2022/03/27 02:09:27;;;;;;;22.63;14.93;;;8.50;99.00;;;;;;5034687;28;20816;-70
2022/03/27 02:11:53;;;;;;;22.10;14.80;;;8.50;99.00;;;;;;5034427;28;20174;-71
2022/03/27 02:14:19;;;;;;;22.47;15.17;;;8.60;99.00;;;;;;5034485;28;20545;-70
2022/03/27 02:16:45;;;;;;;25.47;13.33;;;8.60;99.00;;;;;;5032791;28;20705;-70
2022/03/27 02:19:11;;;;;;;24.60;15.97;;;8.50;99.20;;;;;;5034200;28;20405;-70
2022/03/27 02:21:38;;;;;;;19.73;14.90;;;8.40;99.30;;;;;;5034700;28;20671;-71
2022/03/27 02:24:04;;;;;;;23.00;14.33;;;8.40;99.70;;;;;;5034073;28;20439;-71
2022/03/27 02:26:30;;;;;;;23.47;15.60;;;8.40;99.70;;;;;;5034182;28;20967;-71
2022/03/27 02:28:56;;;;;;;24.20;16.43;;;8.20;99.60;;;;;;5032761;28;20424;-71
2022/03/27 02:31:21;;;;;;;18.67;13.87;;;8.20;99.90;;;;;;5033656;28;20913;-71
2022/03/27 02:33:48;;;;;;;21.10;15.10;;;8.20;99.70;;;;;;5033916;28;20177;-70
2022/03/27 02:36:14;;;;;;;23.57;15.43;;;8.20;99.90;;;;;;5033881;28;20206;-70
2022/03/27 02:38:40;;;;;;;26.13;16.10;;;8.20;99.90;;;;;;5033956;28;20493;-70
2022/03/27 02:41:06;;;;;;;21.90;14.53;;;8.20;99.90;;;;;;5034290;28;20817;-70
2022/03/27 02:43:33;;;;;;;22.67;15.57;;;8.30;99.90;;;;;;5034220;28;20409;-71
2022/03/27 02:45:59;;;;;;;21.70;16.00;;;8.30;99.90;;;;;;5033197;28;20500;-70
2022/03/27 02:48:25;;;;;;;24.03;14.73;;;8.10;99.90;;;;;;5033957;28;20417;-71
2022/03/27 02:50:51;;;;;;;24.77;16.13;;;8.10;99.90;;;;;;5033837;28;20787;-70
2022/03/27 02:53:17;;;;;;;23.60;15.23;;;8.20;99.90;;;;;;5033761;28;20499;-70
2022/03/27 02:55:42;;;;;;;19.70;14.90;;;8.10;99.90;;;;;;5033508;28;20230;-70
2022/03/27 02:58:08;;;;;;;23.23;14.70;;;8.10;99.90;;;;;;5034111;28;20178;-71
2022/03/27 03:00:34;;;;;;;21.30;14.30;;;8.00;99.90;;;;;;5031726;28;20174;-72
2022/03/27 03:03:00;;;;;;;24.53;14.93;;;8.00;99.90;;;;;;5032423;28;20181;-71
2022/03/27 03:05:25;;;;;;;22.80;15.23;;;8.00;99.90;;;;;;5033528;28;20323;-71
2022/03/27 03:07:51;;;;;;;19.60;14.67;;;8.10;99.90;;;;;;5033496;28;20181;-70
2022/03/27 03:10:17;;;;;;;16.73;13.93;;;8.00;99.90;;;;;;5033385;28;20181;-70
2022/03/27 03:12:43;;;;;;;21.70;14.23;;;8.10;99.90;;;;;;5033558;28;20604;-70
2022/03/27 03:15:09;;;;;;;22.70;14.43;;;8.10;99.90;;;;;;5032631;28;20417;-71
2022/03/27 03:17:36;;;;;;;17.00;14.30;;;8.00;99.90;;;;;;5032924;28;20294;-70
2022/03/27 03:20:03;;;;;;;24.10;15.00;;;8.00;99.90;;;;;;5033267;28;20467;-71
2022/03/27 03:22:29;;;;;;;16.83;13.07;;;8.00;99.90;;;;;;5033376;28;20411;-71
2022/03/27 03:24:54;;;;;;;19.27;14.40;;;7.90;99.90;;;;;;5033031;28;20782;-71
2022/03/27 03:27:20;;;;;;;17.60;12.60;;;8.00;99.90;;;;;;5033060;28;20436;-72
2022/03/27 03:29:46;;;;;;;25.17;15.03;;;7.90;99.90;;;;;;5033667;28;20173;-71
2022/03/27 03:32:11;;;;;;;22.67;13.30;;;7.90;99.90;;;;;;5032601;28;20185;-71
2022/03/27 03:34:37;;;;;;;19.63;14.27;;;7.90;99.90;;;;;;5031879;28;20231;-71
2022/03/27 03:37:03;;;;;;;20.00;13.50;;;7.90;99.90;;;;;;5032828;28;20279;-71
2022/03/27 03:39:29;;;;;;;20.87;14.50;;;7.80;99.90;;;;;;5033201;28;20633;-71
2022/03/27 03:41:55;;;;;;;24.03;14.80;;;7.80;99.90;;;;;;5033060;28;20417;-71
2022/03/27 03:44:20;;;;;;;22.20;14.57;;;7.70;99.90;;;;;;5033027;28;20173;-71
2022/03/27 03:46:46;;;;;;;22.63;14.23;;;7.60;99.90;;;;;;5032377;28;20438;-71
2022/03/27 03:49:12;;;;;;;19.17;13.90;;;7.60;99.90;;;;;;5032439;28;20198;-71
2022/03/27 03:51:38;;;;;;;20.30;13.30;;;7.50;99.90;;;;;;5034318;28;20190;-71
2022/03/27 03:54:07;;;;;;;23.77;14.87;;;7.50;99.90;;;;;;5031625;28;20422;-71
2022/03/27 03:56:33;;;;;;;24.67;14.07;;;7.50;99.90;;;;;;5032971;28;20211;-71
2022/03/27 03:58:59;;;;;;;22.50;14.67;;;7.50;99.90;;;;;;5031593;28;20426;-72
2022/03/27 04:01:25;;;;;;;19.30;14.23;;;7.50;99.90;;;;;;5032516;28;20903;-71
2022/03/27 04:03:50;;;;;;;19.00;13.80;;;7.50;99.90;;;;;;5032715;28;20172;-71
2022/03/27 04:06:16;;;;;;;21.77;13.50;;;7.50;99.90;;;;;;5032595;28;20443;-71
2022/03/27 04:08:42;;;;;;;28.07;15.20;;;7.50;99.90;;;;;;5032992;28;20172;-71
2022/03/27 04:11:07;;;;;;;19.00;13.30;;;7.60;99.90;;;;;;5032378;28;20176;-71
2022/03/27 04:13:33;;;;;;;22.17;13.67;;;7.60;99.90;;;;;;5035682;28;20687;-70
2022/03/27 04:18:25;;;;;;;22.37;13.33;;;7.50;99.90;;;;;;5044166;23;20256;-70
2022/03/27 04:20:51;;;;;;;19.93;13.03;;;7.50;99.90;;;;;;5035072;28;20197;-69
2022/03/27 04:23:17;;;;;;;19.17;13.23;;;7.50;99.90;;;;;;5036200;28;20403;-71
2022/03/27 04:25:43;;;;;;;16.73;12.97;;;7.50;99.90;;;;;;5035704;28;20925;-70
2022/03/27 04:28:10;;;;;;;22.40;14.13;;;7.50;99.90;;;;;;5029625;28;20234;-70
2022/03/27 04:30:37;;;;;;;19.90;14.47;;;7.40;99.90;;;;;;5035561;28;20240;-72
2022/03/27 04:33:03;;;;;;;19.00;12.23;;;7.40;99.90;;;;;;5031707;28;20414;-70
2022/03/27 04:35:29;;;;;;;18.47;13.10;;;7.40;99.90;;;;;;5036108;28;20417;-70
2022/03/27 04:37:54;;;;;;;20.07;14.07;;;7.30;99.90;;;;;;5036114;28;21005;-69
2022/03/27 04:40:20;;;;;;;25.90;15.30;;;7.30;99.90;;;;;;5036183;28;20166;-69
2022/03/27 04:42:46;;;;;;;21.93;13.90;;;7.20;99.90;;;;;;5036127;28;20168;-70
2022/03/27 04:45:12;;;;;;;21.30;13.73;;;7.10;99.90;;;;;;5036394;28;20172;-70
2022/03/27 04:47:38;;;;;;;22.60;15.40;;;7.20;99.90;;;;;;5035152;28;20195;-70
2022/03/27 04:50:05;;;;;;;23.03;13.57;;;7.10;99.90;;;;;;5035923;28;20501;-70
2022/03/27 04:52:31;;;;;;;18.43;14.40;;;7.10;99.90;;;;;;5035839;28;20457;-70
2022/03/27 04:54:57;;;;;;;21.27;14.33;;;7.10;99.90;;;;;;5036036;28;20414;-70
2022/03/27 04:57:23;;;;;;;20.43;14.27;;;7.10;99.90;;;;;;5035944;28;20283;-69
2022/03/27 04:59:48;;;;;;;18.23;13.10;;;7.10;99.90;;;;;;5036140;28;20563;-70
2022/03/27 05:02:14;;;;;;;21.40;14.77;;;7.10;99.90;;;;;;5035251;28;20411;-70
2022/03/27 05:04:41;;;;;;;23.53;14.70;;;7.00;99.90;;;;;;5035822;28;20167;-69
2022/03/27 05:07:07;;;;;;;19.57;14.63;;;7.00;99.90;;;;;;5035575;28;20481;-70
2022/03/27 05:09:33;;;;;;;25.83;15.53;;;7.00;99.90;;;;;;5035350;28;20418;-70
2022/03/27 05:11:59;;;;;;;18.07;13.10;;;7.00;99.90;;;;;;5035202;28;20417;-69
2022/03/27 05:14:24;;;;;;;19.20;13.73;;;7.00;99.90;;;;;;5035100;28;20407;-69
2022/03/27 05:16:50;;;;;;;20.90;13.83;;;6.90;99.90;;;;;;5033020;28;20289;-70
2022/03/27 05:19:16;;;;;;;23.70;14.87;;;6.90;99.90;;;;;;5035263;28;20546;-69
2022/03/27 05:21:41;;;;;;;21.00;14.73;;;6.90;99.90;;;;;;5035306;28;20176;-69
2022/03/27 05:24:09;;;;;;;23.83;14.80;;;6.90;99.90;;;;;;5035063;28;20408;-70
2022/03/27 05:26:35;;;;;;;27.53;16.40;;;6.80;99.90;;;;;;5034810;28;20211;-69
2022/03/27 05:29:04;;;;;;;18.53;13.67;;;6.70;99.90;;;;;;5035009;28;20410;-69
2022/03/27 05:31:29;;;;;;;19.67;13.50;;;6.80;99.90;;;;;;5034470;28;20414;-70
2022/03/27 05:33:55;;;;;;;21.67;15.17;;;6.80;99.90;;;;;;5035059;28;20763;-70
2022/03/27 05:36:21;;;;;;;21.60;14.87;;;6.80;99.90;;;;;;5034778;28;20536;-71
2022/03/27 05:38:47;;;;;;;22.67;13.50;;;6.80;99.90;;;;;;5034953;28;20160;-70
2022/03/27 05:41:13;;;;;;;20.40;14.63;;;6.80;99.90;;;;;;5035229;28;20172;-70
2022/03/27 05:43:39;;;;;;;21.63;14.90;;;6.80;99.90;;;;;;5034360;28;20456;-70
2022/03/27 05:46:04;;;;;;;19.53;14.43;;;6.90;99.90;;;;;;5034238;28;20210;-69
2022/03/27 05:48:31;;;;;;;24.00;15.60;;;6.80;99.90;;;;;;5034757;28;20414;-70
2022/03/27 05:50:57;;;;;;;25.53;15.47;;;6.80;99.90;;;;;;5034862;28;20427;-70
2022/03/27 05:53:23;;;;;;;23.83;15.40;;;6.90;99.90;;;;;;5034567;28;20778;-70
2022/03/27 05:55:48;;;;;;;22.80;14.40;;;6.90;99.90;;;;;;5034552;28;20213;-70
2022/03/27 05:58:16;;;;;;;23.73;14.57;;;6.90;99.90;;;;;;5033431;28;20909;-70
2022/03/27 06:00:42;;;;;;;22.83;15.77;;;6.80;99.90;;;;;;5034259;28;20175;-70
2022/03/27 06:03:07;;;;;;;23.80;15.50;;;6.90;99.90;;;;;;5034548;28;20411;-71
2022/03/27 06:05:33;;;;;;;20.70;16.00;;;7.00;99.90;;;;;;5034530;28;20181;-70
2022/03/27 06:07:59;;;;;;;22.00;14.80;;;7.10;99.90;;;;;;5034563;28;20255;-70
2022/03/27 06:10:26;;;;;;;20.40;15.07;;;7.20;99.90;;;;;;5029052;28;20237;-74
2022/03/27 06:12:52;;;;;;;22.70;16.53;;;7.20;99.90;;;;;;5024929;28;21013;-70
2022/03/27 06:15:19;;;;;;;25.47;15.30;;;7.30;99.90;;;;;;5023617;28;20428;-71
2022/03/27 06:17:48;;;;;;;24.40;15.53;;;7.40;99.90;;;;;;5024606;28;20450;-72
2022/03/27 06:20:22;;;;;;;29.17;18.80;;;7.40;99.90;;;;;;5025272;28;20425;-71
2022/03/27 06:22:49;;;;;;;27.93;18.30;;;7.30;99.90;;;;;;5025544;28;20410;-71
2022/03/27 06:25:16;;;;;;;25.67;16.60;;;7.40;99.90;;;;;;5025132;28;20415;-72
2022/03/27 06:27:43;;;;;;;33.27;17.43;;;7.40;99.90;;;;;;5024326;28;20822;-70
2022/03/27 06:30:12;;;;;;;28.20;18.00;;;7.40;99.90;;;;;;5024062;28;20771;-71
2022/03/27 06:32:38;;;;;;;25.27;15.77;;;7.50;99.90;;;;;;5024339;28;20447;-72
2022/03/27 06:35:05;;;;;;;23.43;17.27;;;7.60;99.90;;;;;;5024062;28;20437;-73
2022/03/27 06:37:32;;;;;;;23.10;16.50;;;7.70;99.90;;;;;;5024647;28;20524;-70
2022/03/27 06:39:58;;;;;;;23.73;17.50;;;7.80;99.90;;;;;;5024153;28;20777;-71
2022/03/27 06:42:26;;;;;;;22.50;15.57;;;7.90;99.90;;;;;;5024501;28;20411;-71
2022/03/27 06:44:53;;;;;;;27.30;16.60;;;8.00;99.90;;;;;;5024024;28;20227;-71
2022/03/27 06:47:19;;;;;;;22.10;16.90;;;8.10;99.90;;;;;;5023868;28;20445;-75
2022/03/27 06:49:45;;;;;;;21.23;15.17;;;8.20;99.90;;;;;;5024214;28;20420;-70
2022/03/27 06:52:11;;;;;;;23.87;16.20;;;8.40;99.90;;;;;;5024184;28;20837;-73
2022/03/27 06:54:37;;;;;;;24.63;17.67;;;8.50;99.90;;;;;;5024366;28;20424;-71
2022/03/27 06:57:03;;;;;;;24.33;16.70;;;8.70;99.90;;;;;;5030282;28;20201;-69
2022/03/27 07:03:01;;;;;;;23.30;17.80;;;8.80;99.90;;;;;;5034024;28;20905;-69
2022/03/27 07:04:59;;;;;;;21.10;16.57;;;9.10;99.90;;;;;;5033694;28;20422;-71
2022/03/27 07:07:25;;;;;;;20.43;15.93;;;9.30;99.90;;;;;;5033719;28;20437;-71
2022/03/27 07:09:50;;;;;;;26.87;18.13;;;9.40;99.90;;;;;;5029252;28;20172;-70
2022/03/27 07:12:16;;;;;;;23.60;17.60;;;9.50;99.90;;;;;;5032440;28;20175;-71
2022/03/27 07:14:42;;;;;;;25.03;18.33;;;9.60;99.90;;;;;;5032583;28;20188;-72
2022/03/27 07:17:07;;;;;;;21.90;16.77;;;9.70;99.90;;;;;;5031203;28;20271;-71
2022/03/27 07:19:34;;;;;;;23.70;16.23;;;9.80;99.90;;;;;;5033089;28;20175;-69
2022/03/27 07:22:00;;;;;;;27.03;18.13;;;9.90;99.90;;;;;;5033330;28;20194;-70
2022/03/27 07:24:26;;;;;;;28.73;19.10;;;9.90;99.90;;;;;;5032841;28;20434;-71
2022/03/27 07:26:51;;;;;;;26.63;17.93;;;9.90;99.70;;;;;;5032566;28;20261;-71
2022/03/27 07:29:17;;;;;;;23.87;18.03;;;10.00;99.60;;;;;;5032758;28;20261;-71
2022/03/27 07:31:42;;;;;;;23.10;16.77;;;9.90;99.40;;;;;;5032180;28;20559;-71
2022/03/27 07:34:10;;;;;;;27.30;18.00;;;9.90;98.50;;;;;;5032203;28;20554;-71
2022/03/27 07:36:36;;;;;;;23.90;17.70;;;9.60;98.50;;;;;;5032673;28;20265;-70
2022/03/27 07:39:02;;;;;;;28.93;17.47;;;9.50;98.70;;;;;;5032686;28;20927;-70
2022/03/27 07:41:28;;;;;;;22.53;17.10;;;9.50;98.40;;;;;;5031353;28;20635;-71
2022/03/27 07:43:53;;;;;;;25.73;18.87;;;9.90;98.30;;;;;;5031517;28;20406;-70
2022/03/27 07:46:19;;;;;;;27.07;18.40;;;10.30;97.60;;;;;;5031894;28;20208;-71
2022/03/27 07:48:44;;;;;;;23.27;17.10;;;10.60;97.30;;;;;;5036003;28;20167;-71
2022/03/27 07:51:10;;;;;;;25.07;20.00;;;10.80;97.00;;;;;;5036508;28;20237;-72
2022/03/27 07:53:36;;;;;;;25.93;22.30;;;11.00;96.80;;;;;;5037329;28;20169;-71
2022/03/27 07:56:01;;;;;;;30.00;20.50;;;11.00;97.00;;;;;;5037139;28;20664;-72
2022/03/27 07:58:27;;;;;;;27.00;20.30;;;10.80;96.80;;;;;;5036905;28;20176;-72
2022/03/27 08:00:53;;;;;;;27.57;19.53;;;10.70;97.10;;;;;;5036115;28;20168;-71
2022/03/27 08:03:18;;;;;;;28.07;20.47;;;10.70;96.80;;;;;;5036651;28;20160;-71
2022/03/27 08:05:44;;;;;;;30.33;22.03;;;10.70;96.70;;;;;;5036721;28;20178;-72
2022/03/27 08:08:09;;;;;;;27.73;19.57;;;10.90;96.60;;;;;;5037796;28;20223;-72
2022/03/27 08:10:35;;;;;;;21.83;18.30;;;11.20;96.30;;;;;;5036876;28;20167;-71
2022/03/27 08:13:00;;;;;;;27.17;19.10;;;11.30;95.80;;;;;;5036740;28;20182;-71
2022/03/27 08:15:26;;;;;;;31.03;18.63;;;11.30;95.90;;;;;;5035344;28;20673;-72
2022/03/27 08:17:53;;;;;;;32.33;21.97;;;11.50;95.50;;;;;;5036397;28;20229;-71
2022/03/27 08:20:21;;;;;;;29.50;20.27;;;11.20;95.50;;;;;;5036579;28;20460;-72
2022/03/27 08:22:47;;;;;;;26.13;20.10;;;10.90;95.90;;;;;;5036184;28;20405;-71
2022/03/27 08:26:55;;;;;;;31.10;21.10;;;11.00;96.00;;;;;;5036444;28;20402;-71
2022/03/27 08:27:58;;;;;;;26.00;19.30;;;11.20;95.90;;;;;;5038989;28;20441;-71
2022/03/27 08:30:24;;;;;;;25.40;19.60;;;11.30;95.50;;;;;;5038313;28;20411;-72
2022/03/27 08:32:49;;;;;;;24.87;18.57;;;11.40;95.20;;;;;;5039216;28;20249;-72
2022/03/27 08:35:15;;;;;;;25.70;18.63;;;11.30;95.30;;;;;;5036467;28;20191;-72
2022/03/27 08:37:41;;;;;;;24.00;17.97;;;11.40;95.20;;;;;;5036263;28;20633;-71
2022/03/27 08:40:07;;;;;;;26.63;19.30;;;11.20;95.20;;;;;;5036076;28;20263;-72
2022/03/27 08:42:32;;;;;;;26.40;19.07;;;11.40;95.20;;;;;;5036222;28;20160;-72
2022/03/27 08:44:58;;;;;;;26.00;19.13;;;11.60;95.10;;;;;;5036417;28;20884;-72
2022/03/27 08:47:26;;;;;;;33.30;20.63;;;11.60;94.90;;;;;;5035691;28;20195;-72
2022/03/27 08:50:25;;;;;;;28.23;19.37;;;11.70;94.90;;;;;;5036008;28;20652;-71
2022/03/27 08:53:00;;;;;;;24.20;17.13;;;11.80;94.90;;;;;;5036262;28;20434;-72
2022/03/27 08:55:37;;;;;;;27.50;18.67;;;12.00;94.70;;;;;;5035635;28;20386;-72
2022/03/27 08:58:03;;;;;;;25.40;19.53;;;12.30;94.50;;;;;;5035091;28;20425;-72
2022/03/27 09:00:33;;;;;;;22.80;19.80;;;12.40;94.40;;;;;;5035087;28;20404;-72
2022/03/27 09:03:02;;;;;;;23.60;17.30;;;12.60;94.10;;;;;;5035737;28;20162;-72
2022/03/27 09:05:28;;;;;;;22.40;17.40;;;12.60;94.20;;;;;;5034715;28;20420;-71
2022/03/27 09:07:56;;;;;;;19.10;16.10;;;12.70;93.90;;;;;;5035372;28;20499;-72
2022/03/27 09:10:24;;;;;;;23.47;16.47;;;12.80;94.00;;;;;;5035667;28;20431;-72
2022/03/27 09:12:51;;;;;;;19.60;15.53;;;12.90;94.10;;;;;;5034306;28;20447;-72
2022/03/27 09:15:19;;;;;;;20.63;16.23;;;13.10;93.90;;;;;;5034368;28;20857;-72
2022/03/27 09:18:09;;;;;;;19.77;14.67;;;13.20;93.50;;;;;;5035112;28;20465;-72
2022/03/27 09:20:46;;;;;;;21.90;16.43;;;13.40;93.10;;;;;;5035639;28;20374;-71
2022/03/27 09:23:21;;;;;;;22.40;17.80;;;13.50;92.90;;;;;;5035659;28;20380;-71
2022/03/27 09:25:57;;;;;;;21.40;16.80;;;13.80;92.60;;;;;;5035137;28;20398;-69
2022/03/27 09:28:23;;;;;;;20.30;16.33;;;14.10;92.70;;;;;;5035626;28;20200;-69
2022/03/27 09:30:49;;;;;;;21.60;17.27;;;14.10;92.00;;;;;;5034662;28;20406;-71
2022/03/27 09:33:37;;;;;;;23.30;17.93;;;14.00;91.70;;;;;;5035468;28;20479;-70
2022/03/27 09:36:07;;;;;;;24.50;17.10;;;13.90;92.10;;;;;;5035614;28;20227;-71
2022/03/27 09:38:34;;;;;;;24.10;18.07;;;13.90;91.70;;;;;;5035390;28;20529;-73
2022/03/27 09:41:00;;;;;;;22.17;16.53;;;14.00;91.80;;;;;;5035249;28;20413;-71
2022/03/27 09:43:25;;;;;;;21.03;16.87;;;14.30;91.20;;;;;;5034759;28;20478;-70
2022/03/27 09:46:02;;;;;;;26.87;15.80;;;14.50;91.10;;;;;;5034598;28;20182;-72
2022/03/27 09:48:28;;;;;;;22.40;14.90;;;14.70;90.60;;;;;;5034651;28;20576;-71
2022/03/27 09:50:57;;;;;;;22.90;16.90;;;14.90;91.00;;;;;;5034714;28;20415;-70
2022/03/27 09:53:32;;;;;;;26.13;15.93;;;15.00;90.30;;;;;;5034298;28;20782;-69
2022/03/27 09:55:58;;;;;;;17.10;15.30;;;14.80;90.10;;;;;;5034464;28;20483;-70
2022/03/27 09:58:35;;;;;;;18.27;15.17;;;14.80;90.40;;;;;;5034918;28;20520;-69
2022/03/27 10:01:12;;;;;;;20.60;15.17;;;15.10;89.60;;;;;;5034586;28;20482;-69
2022/03/27 10:03:59;;;;;;;20.23;14.93;;;15.40;90.00;;;;;;5026962;28;20428;-68
2022/03/27 10:06:28;;;;;;;21.30;16.03;;;15.60;87.80;;;;;;5034467;28;20930;-68
2022/03/27 10:08:53;;;;;;;19.17;14.80;;;15.60;87.90;;;;;;5034487;28;20917;-68
2022/03/27 10:11:23;;;;;;;20.63;15.60;;;15.70;87.50;;;;;;5033418;28;20563;-68
2022/03/27 10:13:53;;;;;;;19.40;14.57;;;15.90;88.40;;;;;;5034949;28;20186;-69
2022/03/27 10:18:55;;;;;;;22.00;15.10;;;16.10;85.10;;;;;;5053837;23;20473;-69
2022/03/27 10:21:24;;;;;;;22.47;16.60;;;16.10;84.60;;;;;;5034040;28;20406;-70
2022/03/27 10:23:54;;;;;;;19.90;15.53;;;16.10;85.30;;;;;;5034677;28;20405;-68
2022/03/27 10:26:20;;;;;;;19.37;15.20;;;16.10;84.10;;;;;;5033938;28;20390;-69
2022/03/27 10:28:50;;;;;;;23.80;15.33;;;16.10;85.30;;;;;;5033978;28;20429;-69
2022/03/27 10:31:18;;;;;;;20.13;15.00;;;16.40;85.20;;;;;;5033517;28;20298;-70
2022/03/27 10:33:44;;;;;;;19.07;14.50;;;16.70;82.60;;;;;;5033622;28;20443;-70
2022/03/27 10:36:21;;;;;;;18.20;15.10;;;16.50;82.00;;;;;;5033750;28;20442;-70
2022/03/27 10:39:10;;;;;;;21.47;14.37;;;16.40;81.50;;;;;;5029816;28;20446;-70
2022/03/27 10:42:06;;;;;;;18.73;14.90;;;16.60;81.00;;;;;;5012478;28;20774;-70
2022/03/27 10:44:58;;;;;;;23.43;15.50;;;16.70;81.30;;;;;;5027073;28;20394;-70
2022/03/27 10:47:25;;;;;;;20.17;15.30;;;17.10;79.60;;;;;;5033487;28;20418;-70
2022/03/27 10:50:06;;;;;;;22.43;15.17;;;17.30;78.80;;;;;;5033860;28;20895;-71
2022/03/27 10:52:36;;;;;;;18.93;14.53;;;17.20;79.40;;;;;;5033259;28;20405;-70
2022/03/27 10:55:12;;;;;;;18.23;15.10;;;17.30;79.40;;;;;;5033546;28;20390;-71
2022/03/27 10:57:42;;;;;;;19.90;15.47;;;17.70;79.90;;;;;;5033505;28;20569;-70
2022/03/27 11:00:10;;;;;;;23.27;16.40;;;18.40;76.50;;;;;;5033194;28;20454;-70
2022/03/27 11:02:50;;;;;;;17.23;14.53;;;18.80;75.40;;;;;;5033027;28;20416;-70
2022/03/27 11:05:31;;;;;;;22.87;15.23;;;19.20;76.60;;;;;;5033117;28;20401;-70
2022/03/27 11:08:16;;;;;;;18.77;15.40;;;19.70;73.30;;;;;;5032434;28;20440;-70
2022/03/27 11:10:54;;;;;;;21.90;15.03;;;20.20;69.50;;;;;;5033127;28;20409;-70
2022/03/27 11:13:43;;;;;;;18.77;14.30;;;20.30;68.60;;;;;;5032926;28;20382;-71
2022/03/27 11:16:18;;;;;;;18.03;14.67;;;20.30;67.60;;;;;;5031272;28;20931;-70
2022/03/27 11:18:45;;;;;;;18.37;13.67;;;21.10;63.70;;;;;;5032791;28;20471;-70
2022/03/27 11:21:12;;;;;;;18.10;13.50;;;22.40;64.30;;;;;;5032963;28;20406;-70
2022/03/27 11:23:40;;;;;;;19.00;13.63;;;24.00;57.60;;;;;;5031645;28;20607;-73
2022/03/27 11:26:32;;;;;;;20.20;13.20;;;25.60;55.50;;;;;;5032988;28;20420;-73
2022/03/27 11:29:04;;;;;;;15.27;11.93;;;26.10;51.60;;;;;;5033229;28;20543;-71
2022/03/27 11:31:35;;;;;;;24.03;13.70;;;28.20;48.10;;;;;;5032351;28;20399;-71
2022/03/27 11:34:14;;;;;;;23.13;14.17;;;27.10;46.20;;;;;;5012905;28;20409;-71
2022/03/27 11:36:41;;;;;;;18.67;12.50;;;27.00;46.20;;;;;;5012955;28;20458;-73
2022/03/27 11:39:13;;;;;;;19.63;14.40;;;27.10;46.70;;;;;;5012956;28;20442;-72
2022/03/27 11:41:43;;;;;;;16.70;13.37;;;27.30;44.50;;;;;;5012904;28;20410;-72
2022/03/27 11:45:13;;;;;;;19.40;14.17;;;27.50;42.40;;;;;;5013383;28;20403;-72
2022/03/27 11:47:19;;;;;;;17.50;11.70;;;25.80;44.10;;;;;;5027723;28;20519;-72
2022/03/27 11:49:45;;;;;;;15.50;12.60;;;24.90;46.30;;;;;;5032473;28;20429;-72
2022/03/27 11:52:16;;;;;;;18.33;13.40;;;25.80;45.00;;;;;;5032858;28;20411;-72
2022/03/27 11:54:42;;;;;;;14.80;11.20;;;27.60;42.70;;;;;;5035148;28;20726;-72
2022/03/27 11:57:08;;;;;;;23.03;12.80;;;26.90;41.80;;;;;;5032631;28;20464;-72
2022/03/27 11:59:50;;;;;;;13.50;11.40;;;27.20;41.10;;;;;;5032797;28;20468;-72
2022/03/27 12:02:17;;;;;;;18.20;11.40;;;27.10;41.10;;;;;;5032063;28;20413;-73
2022/03/27 12:04:57;;;;;;;16.80;11.80;;;27.70;40.00;;;;;;5032409;28;20459;-71
2022/03/27 12:07:24;;;;;;;15.50;12.50;;;28.70;38.30;;;;;;5032450;28;20551;-73
2022/03/27 12:10:01;;;;;;;13.27;11.77;;;27.70;39.60;;;;;;5032463;28;20468;-74
2022/03/27 12:12:28;;;;;;;17.37;12.87;;;27.10;39.00;;;;;;5032552;28;20964;-74
2022/03/27 12:15:02;;;;;;;15.87;11.80;;;27.50;38.20;;;;;;5030280;28;20930;-72
2022/03/27 12:17:36;;;;;;;11.53;10.33;;;27.50;38.00;;;;;;5031917;28;20465;-72
2022/03/27 12:20:06;;;;;;;22.13;11.70;;;26.90;38.00;;;;;;5033068;28;20383;-70
2022/03/27 12:22:45;;;;;;;15.13;10.40;;;28.40;37.40;;;;;;5032327;28;20403;-70
2022/03/27 12:25:21;;;;;;;12.60;10.57;;;28.60;35.80;;;;;;5032390;28;20398;-70
2022/03/27 12:30:51;;;;;;;12.77;10.67;;;27.50;36.50;;;;;;5031998;28;20940;-70
2022/03/27 12:33:21;;;;;;;19.47;10.80;;;28.30;36.00;;;;;;5032311;28;20487;-71
2022/03/27 12:36:05;;;;;;;15.40;10.40;;;27.60;36.20;;;;;;5036142;28;20489;-71
2022/03/27 12:38:33;;;;;;;15.20;10.50;;;28.30;36.10;;;;;;5036072;28;20517;-69
2022/03/27 12:40:58;;;;;;;13.53;9.80;;;29.90;34.40;;;;;;5036103;28;20412;-71
2022/03/27 12:43:24;;;;;;;13.30;10.53;;;30.60;33.40;;;;;;5036074;28;20489;-72
2022/03/27 12:45:50;;;;;;;11.50;9.70;;;29.80;33.40;;;;;;5035274;28;20178;-72
2022/03/27 12:48:18;;;;;;;13.20;9.30;;;28.80;34.10;;;;;;5035692;28;20497;-72
2022/03/27 12:50:46;;;;;;;14.80;10.00;;;29.50;34.10;;;;;;5035868;28;20175;-72